SHMÚ vydal meteorologické výstrahy na Búrky Zobraziť výstrahy

TAF

Letisková predpoveď TAF

Informácie o správe TAF

23.07.2016 - 05:00 UTC (Včera)

TAF LZIB 230500Z 2306/2406 04005KT 9999 SCT040 BKN080
    TEMPO 2306/2320 08010KT -SHRA FEW030CB BKN050
    PROB40 TEMPO 2309/2317 VRB15G25KT 5000 TSRA SCT030CB BKN040
    BECMG 2317/2319 VRB02KT
    PROB30 TEMPO 2403/2406 7000 -TSRA BKN010 SCT040CB=
TAF LZKZ 230500Z 2306/2406 VRB02KT 9999 SCT046
    TEMPO 2312/2318 24012KT -SHRA FEW040CB BKN050
    BECMG 2319/2321 01008KT CAVOK=
TAF LZTT 230500Z 2306/2406 VRB02KT 9999 SCT040
    BECMG 2307/2309 11008KT
    TEMPO 2309/2318 06012KT -SHRA FEW040TCU BKN050
    BECMG 2318/2320 VRB02KT CAVOK=

23.07.2016 - 02:00 UTC (Včera)

TAF LZSL 230200Z 2303/2312 VRB02KT CAVOK
    TEMPO 2303/2305 4500 BR NSC
    BECMG 2307/2309 20006KT 9999 SCT030
    TEMPO 2310/2312 -SHRA SCT030TCU BKN050=
TAF LZZI 230200Z 2303/2312 VRB02KT CAVOK
    BECMG 2307/2309 03006KT 9999 FEW040=

skok na menu ↑


skok na začiatok stránky ↑